sensor_id;sensor_type;location;lat;lon;timestamp;P1;durP1;ratioP1;P2;durP2;ratioP2
65658;SDS011;60181;53.258;6.932;2023-08-17T00:00:47;5.00;;;2.60;;
65658;SDS011;60181;53.258;6.932;2023-08-17T00:04:57;5.00;;;2.40;;
65658;SDS011;60181;53.258;6.932;2023-08-17T00:09:07;5.00;;;2.40;;
65658;SDS011;60181;53.258;6.932;2023-08-17T00:13:17;4.30;;;2.40;;
65658;SDS011;60181;53.258;6.932;2023-08-17T00:17:27;4.30;;;2.40;;
65658;SDS011;60181;53.258;6.932;2023-08-17T00:21:37;4.30;;;2.40;;
65658;SDS011;60181;53.258;6.932;2023-08-17T00:25:47;5.30;;;2.40;;
65658;SDS011;60181;53.258;6.932;2023-08-17T00:29:57;5.30;;;2.40;;
65658;SDS011;60181;53.258;6.932;2023-08-17T00:34:07;5.20;;;2.60;;
65658;SDS011;60181;53.258;6.932;2023-08-17T00:38:17;5.20;;;2.60;;
65658;SDS011;60181;53.258;6.932;2023-08-17T00:42:27;5.20;;;2.60;;
65658;SDS011;60181;53.258;6.932;2023-08-17T00:46:37;5.40;;;2.50;;
65658;SDS011;60181;53.258;6.932;2023-08-17T00:50:47;5.40;;;2.50;;
65658;SDS011;60181;53.258;6.932;2023-08-17T00:54:57;3.50;;;2.50;;
65658;SDS011;60181;53.258;6.932;2023-08-17T00:59:07;3.50;;;2.50;;
65658;SDS011;60181;53.258;6.932;2023-08-17T01:03:17;4.10;;;2.50;;
65658;SDS011;60181;53.258;6.932;2023-08-17T01:07:27;4.10;;;2.50;;
65658;SDS011;60181;53.258;6.932;2023-08-17T01:15:50;3.80;;;2.50;;
65658;SDS011;60181;53.258;6.932;2023-08-17T01:19:57;3.80;;;2.50;;
65658;SDS011;60181;53.258;6.932;2023-08-17T01:24:07;3.90;;;2.40;;
65658;SDS011;60181;53.258;6.932;2023-08-17T01:28:17;3.90;;;2.40;;
65658;SDS011;60181;53.258;6.932;2023-08-17T01:32:28;3.90;;;2.40;;
65658;SDS011;60181;53.258;6.932;2023-08-17T01:36:37;3.60;;;2.30;;
65658;SDS011;60181;53.258;6.932;2023-08-17T01:40:47;3.60;;;2.30;;
65658;SDS011;60181;53.258;6.932;2023-08-17T01:44:57;4.40;;;2.30;;
65658;SDS011;60181;53.258;6.932;2023-08-17T01:49:07;4.40;;;2.30;;
65658;SDS011;60181;53.258;6.932;2023-08-17T01:53:17;5.00;;;2.30;;
65658;SDS011;60181;53.258;6.932;2023-08-17T01:57:27;5.00;;;2.30;;
65658;SDS011;60181;53.258;6.932;2023-08-17T02:01:37;5.00;;;2.30;;
65658;SDS011;60181;53.258;6.932;2023-08-17T02:05:47;4.30;;;2.30;;
65658;SDS011;60181;53.258;6.932;2023-08-17T02:09:57;4.30;;;2.30;;
65658;SDS011;60181;53.258;6.932;2023-08-17T02:14:07;5.50;;;2.50;;
65658;SDS011;60181;53.258;6.932;2023-08-17T02:18:17;5.50;;;2.50;;
65658;SDS011;60181;53.258;6.932;2023-08-17T02:22:27;5.50;;;2.50;;
65658;SDS011;60181;53.258;6.932;2023-08-17T02:26:37;5.30;;;2.60;;
65658;SDS011;60181;53.258;6.932;2023-08-17T02:30:47;5.30;;;2.60;;
65658;SDS011;60181;53.258;6.932;2023-08-17T02:34:57;4.00;;;2.40;;
65658;SDS011;60181;53.258;6.932;2023-08-17T02:39:07;4.00;;;2.40;;
65658;SDS011;60181;53.258;6.932;2023-08-17T02:43:17;4.90;;;2.50;;
65658;SDS011;60181;53.258;6.932;2023-08-17T02:47:27;4.90;;;2.50;;
65658;SDS011;60181;53.258;6.932;2023-08-17T02:51:37;4.90;;;2.50;;
65658;SDS011;60181;53.258;6.932;2023-08-17T02:55:47;3.60;;;2.20;;
65658;SDS011;60181;53.258;6.932;2023-08-17T02:59:57;3.60;;;2.20;;
65658;SDS011;60181;53.258;6.932;2023-08-17T03:04:07;3.40;;;2.30;;
65658;SDS011;60181;53.258;6.932;2023-08-17T03:08:17;3.40;;;2.30;;
65658;SDS011;60181;53.258;6.932;2023-08-17T03:12:27;3.40;;;2.30;;
65658;SDS011;60181;53.258;6.932;2023-08-17T03:16:37;3.80;;;2.30;;
65658;SDS011;60181;53.258;6.932;2023-08-17T03:20:47;3.80;;;2.30;;
65658;SDS011;60181;53.258;6.932;2023-08-17T03:24:57;4.70;;;2.30;;
65658;SDS011;60181;53.258;6.932;2023-08-17T03:29:07;4.70;;;2.30;;
65658;SDS011;60181;53.258;6.932;2023-08-17T03:33:17;4.50;;;2.10;;
65658;SDS011;60181;53.258;6.932;2023-08-17T03:37:27;4.50;;;2.10;;
65658;SDS011;60181;53.258;6.932;2023-08-17T03:41:37;4.50;;;2.10;;
65658;SDS011;60181;53.258;6.932;2023-08-17T03:45:47;4.00;;;2.10;;
65658;SDS011;60181;53.258;6.932;2023-08-17T03:49:57;4.00;;;2.10;;
65658;SDS011;60181;53.258;6.932;2023-08-17T03:54:07;3.50;;;2.00;;
65658;SDS011;60181;53.258;6.932;2023-08-17T03:58:17;3.50;;;2.00;;
65658;SDS011;60181;53.258;6.932;2023-08-17T04:02:27;3.50;;;2.00;;
65658;SDS011;60181;53.258;6.932;2023-08-17T04:06:37;3.60;;;2.10;;
65658;SDS011;60181;53.258;6.932;2023-08-17T04:10:47;3.60;;;2.10;;
65658;SDS011;60181;53.258;6.932;2023-08-17T04:14:56;3.30;;;1.90;;
65658;SDS011;60181;53.258;6.932;2023-08-17T04:19:06;3.30;;;1.90;;
65658;SDS011;60181;53.258;6.932;2023-08-17T04:23:16;3.70;;;2.00;;
65658;SDS011;60181;53.258;6.932;2023-08-17T04:27:26;3.70;;;2.00;;
65658;SDS011;60181;53.258;6.932;2023-08-17T04:31:36;3.70;;;2.00;;
65658;SDS011;60181;53.258;6.932;2023-08-17T04:35:47;3.00;;;1.90;;
65658;SDS011;60181;53.258;6.932;2023-08-17T04:39:56;3.00;;;1.90;;
65658;SDS011;60181;53.258;6.932;2023-08-17T04:44:06;3.80;;;1.80;;
65658;SDS011;60181;53.258;6.932;2023-08-17T04:48:16;3.80;;;1.80;;
65658;SDS011;60181;53.258;6.932;2023-08-17T04:52:26;3.80;;;1.80;;
65658;SDS011;60181;53.258;6.932;2023-08-17T04:56:36;2.90;;;1.80;;
65658;SDS011;60181;53.258;6.932;2023-08-17T05:00:46;2.90;;;1.80;;
65658;SDS011;60181;53.258;6.932;2023-08-17T05:04:56;3.10;;;1.80;;
65658;SDS011;60181;53.258;6.932;2023-08-17T05:09:06;3.10;;;1.80;;
65658;SDS011;60181;53.258;6.932;2023-08-17T05:13:16;2.10;;;1.50;;
65658;SDS011;60181;53.258;6.932;2023-08-17T05:17:26;2.10;;;1.50;;
65658;SDS011;60181;53.258;6.932;2023-08-17T05:21:36;2.10;;;1.50;;
65658;SDS011;60181;53.258;6.932;2023-08-17T05:25:46;3.10;;;1.90;;
65658;SDS011;60181;53.258;6.932;2023-08-17T05:29:56;3.10;;;1.90;;
65658;SDS011;60181;53.258;6.932;2023-08-17T05:34:06;3.80;;;1.70;;
65658;SDS011;60181;53.258;6.932;2023-08-17T05:38:16;3.80;;;1.70;;
65658;SDS011;60181;53.258;6.932;2023-08-17T05:42:26;3.80;;;1.70;;
65658;SDS011;60181;53.258;6.932;2023-08-17T05:46:36;4.20;;;1.80;;
65658;SDS011;60181;53.258;6.932;2023-08-17T05:50:47;4.20;;;1.80;;
65658;SDS011;60181;53.258;6.932;2023-08-17T05:54:56;3.30;;;1.60;;
65658;SDS011;60181;53.258;6.932;2023-08-17T05:59:06;3.30;;;1.60;;
65658;SDS011;60181;53.258;6.932;2023-08-17T06:03:16;2.60;;;1.50;;
65658;SDS011;60181;53.258;6.932;2023-08-17T06:07:26;2.60;;;1.50;;
65658;SDS011;60181;53.258;6.932;2023-08-17T06:11:36;2.60;;;1.50;;
65658;SDS011;60181;53.258;6.932;2023-08-17T06:15:46;4.20;;;1.60;;
65658;SDS011;60181;53.258;6.932;2023-08-17T06:19:56;4.20;;;1.60;;
65658;SDS011;60181;53.258;6.932;2023-08-17T06:24:06;3.60;;;1.50;;
65658;SDS011;60181;53.258;6.932;2023-08-17T06:28:16;3.60;;;1.50;;
65658;SDS011;60181;53.258;6.932;2023-08-17T06:32:26;3.60;;;1.50;;
65658;SDS011;60181;53.258;6.932;2023-08-17T06:36:37;1.40;;;1.20;;
65658;SDS011;60181;53.258;6.932;2023-08-17T06:40:46;1.40;;;1.20;;
65658;SDS011;60181;53.258;6.932;2023-08-17T06:44:56;3.40;;;1.60;;
65658;SDS011;60181;53.258;6.932;2023-08-17T06:49:06;3.40;;;1.60;;
65658;SDS011;60181;53.258;6.932;2023-08-17T06:53:16;2.40;;;1.50;;
65658;SDS011;60181;53.258;6.932;2023-08-17T06:57:26;2.40;;;1.50;;
65658;SDS011;60181;53.258;6.932;2023-08-17T07:01:36;2.40;;;1.50;;
65658;SDS011;60181;53.258;6.932;2023-08-17T07:05:46;2.10;;;1.30;;
65658;SDS011;60181;53.258;6.932;2023-08-17T07:09:57;2.10;;;1.30;;
65658;SDS011;60181;53.258;6.932;2023-08-17T07:14:06;2.60;;;1.50;;
65658;SDS011;60181;53.258;6.932;2023-08-17T07:18:16;2.60;;;1.50;;
65658;SDS011;60181;53.258;6.932;2023-08-17T07:22:26;2.60;;;1.50;;
65658;SDS011;60181;53.258;6.932;2023-08-17T07:26:36;2.50;;;1.30;;
65658;SDS011;60181;53.258;6.932;2023-08-17T07:30:46;2.50;;;1.30;;
65658;SDS011;60181;53.258;6.932;2023-08-17T07:34:56;2.40;;;1.40;;
65658;SDS011;60181;53.258;6.932;2023-08-17T07:39:06;2.40;;;1.40;;
65658;SDS011;60181;53.258;6.932;2023-08-17T07:43:16;3.00;;;1.40;;
65658;SDS011;60181;53.258;6.932;2023-08-17T07:47:26;3.00;;;1.40;;
65658;SDS011;60181;53.258;6.932;2023-08-17T07:51:36;3.00;;;1.40;;
65658;SDS011;60181;53.258;6.932;2023-08-17T07:55:46;2.20;;;1.20;;
65658;SDS011;60181;53.258;6.932;2023-08-17T07:59:56;2.20;;;1.20;;
65658;SDS011;60181;53.258;6.932;2023-08-17T08:04:06;4.70;;;1.30;;
65658;SDS011;60181;53.258;6.932;2023-08-17T08:08:16;4.70;;;1.30;;
65658;SDS011;60181;53.258;6.932;2023-08-17T08:12:27;4.70;;;1.30;;
65658;SDS011;60181;53.258;6.932;2023-08-17T08:16:36;3.20;;;1.50;;
65658;SDS011;60181;53.258;6.932;2023-08-17T08:20:46;3.20;;;1.50;;
65658;SDS011;60181;53.258;6.932;2023-08-17T08:24:57;1.90;;;1.20;;
65658;SDS011;60181;53.258;6.932;2023-08-17T08:29:06;1.90;;;1.20;;
65658;SDS011;60181;53.258;6.932;2023-08-17T08:33:16;2.90;;;1.40;;
65658;SDS011;60181;53.258;6.932;2023-08-17T08:37:26;2.90;;;1.40;;
65658;SDS011;60181;53.258;6.932;2023-08-17T08:41:36;2.90;;;1.40;;
65658;SDS011;60181;53.258;6.932;2023-08-17T08:45:46;2.30;;;1.20;;
65658;SDS011;60181;53.258;6.932;2023-08-17T08:50:00;2.30;;;1.20;;
65658;SDS011;60181;53.258;6.932;2023-08-17T08:54:06;2.90;;;1.40;;
65658;SDS011;60181;53.258;6.932;2023-08-17T08:58:16;2.90;;;1.40;;
65658;SDS011;60181;53.258;6.932;2023-08-17T09:02:26;2.90;;;1.40;;
65658;SDS011;60181;53.258;6.932;2023-08-17T09:06:36;2.60;;;1.30;;
65658;SDS011;60181;53.258;6.932;2023-08-17T09:10:46;2.60;;;1.30;;
65658;SDS011;60181;53.258;6.932;2023-08-17T09:14:56;2.30;;;1.40;;
65658;SDS011;60181;53.258;6.932;2023-08-17T09:19:06;2.30;;;1.40;;
65658;SDS011;60181;53.258;6.932;2023-08-17T09:23:17;1.90;;;1.30;;
65658;SDS011;60181;53.258;6.932;2023-08-17T09:27:26;1.90;;;1.30;;
65658;SDS011;60181;53.258;6.932;2023-08-17T09:31:36;1.90;;;1.30;;
65658;SDS011;60181;53.258;6.932;2023-08-17T09:35:46;1.70;;;1.20;;
65658;SDS011;60181;53.258;6.932;2023-08-17T09:39:56;1.70;;;1.20;;
65658;SDS011;60181;53.258;6.932;2023-08-17T09:44:06;2.40;;;1.40;;
65658;SDS011;60181;53.258;6.932;2023-08-17T09:48:17;2.40;;;1.40;;
65658;SDS011;60181;53.258;6.932;2023-08-17T09:52:26;2.40;;;1.40;;
65658;SDS011;60181;53.258;6.932;2023-08-17T09:56:36;2.80;;;1.40;;
65658;SDS011;60181;53.258;6.932;2023-08-17T10:00:49;2.80;;;1.40;;
65658;SDS011;60181;53.258;6.932;2023-08-17T10:04:56;2.20;;;1.20;;
65658;SDS011;60181;53.258;6.932;2023-08-17T10:09:06;2.20;;;1.20;;
65658;SDS011;60181;53.258;6.932;2023-08-17T10:13:23;2.60;;;1.40;;
65658;SDS011;60181;53.258;6.932;2023-08-17T10:17:26;2.60;;;1.40;;
65658;SDS011;60181;53.258;6.932;2023-08-17T10:21:37;2.60;;;1.40;;
65658;SDS011;60181;53.258;6.932;2023-08-17T10:25:46;3.70;;;1.40;;
65658;SDS011;60181;53.258;6.932;2023-08-17T10:29:56;3.70;;;1.40;;
65658;SDS011;60181;53.258;6.932;2023-08-17T10:34:06;2.80;;;1.50;;
65658;SDS011;60181;53.258;6.932;2023-08-17T10:38:16;2.80;;;1.50;;
65658;SDS011;60181;53.258;6.932;2023-08-17T10:42:30;2.80;;;1.50;;
65658;SDS011;60181;53.258;6.932;2023-08-17T10:46:37;3.60;;;1.50;;
65658;SDS011;60181;53.258;6.932;2023-08-17T10:50:58;3.60;;;1.50;;
65658;SDS011;60181;53.258;6.932;2023-08-17T10:54:56;3.40;;;1.50;;
65658;SDS011;60181;53.258;6.932;2023-08-17T10:59:09;3.40;;;1.50;;
65658;SDS011;60181;53.258;6.932;2023-08-17T11:03:19;3.70;;;1.40;;
65658;SDS011;60181;53.258;6.932;2023-08-17T11:07:27;3.70;;;1.40;;
65658;SDS011;60181;53.258;6.932;2023-08-17T11:11:36;3.70;;;1.40;;
65658;SDS011;60181;53.258;6.932;2023-08-17T11:15:46;2.80;;;1.50;;
65658;SDS011;60181;53.258;6.932;2023-08-17T11:19:56;2.80;;;1.50;;
65658;SDS011;60181;53.258;6.932;2023-08-17T11:24:06;2.90;;;1.50;;
65658;SDS011;60181;53.258;6.932;2023-08-17T11:28:16;2.90;;;1.50;;
65658;SDS011;60181;53.258;6.932;2023-08-17T11:32:26;2.90;;;1.50;;
65658;SDS011;60181;53.258;6.932;2023-08-17T11:36:37;2.00;;;1.50;;
65658;SDS011;60181;53.258;6.932;2023-08-17T11:40:46;2.00;;;1.50;;
65658;SDS011;60181;53.258;6.932;2023-08-17T11:44:56;2.90;;;1.60;;
65658;SDS011;60181;53.258;6.932;2023-08-17T11:49:06;2.90;;;1.60;;
65658;SDS011;60181;53.258;6.932;2023-08-17T11:53:16;2.30;;;1.50;;
65658;SDS011;60181;53.258;6.932;2023-08-17T11:57:26;2.30;;;1.50;;
65658;SDS011;60181;53.258;6.932;2023-08-17T12:01:36;2.30;;;1.50;;
65658;SDS011;60181;53.258;6.932;2023-08-17T12:05:46;2.40;;;1.60;;
65658;SDS011;60181;53.258;6.932;2023-08-17T12:09:56;2.40;;;1.60;;
65658;SDS011;60181;53.258;6.932;2023-08-17T12:14:09;2.40;;;1.40;;
65658;SDS011;60181;53.258;6.932;2023-08-17T12:18:16;2.40;;;1.40;;
65658;SDS011;60181;53.258;6.932;2023-08-17T12:22:26;2.40;;;1.40;;
65658;SDS011;60181;53.258;6.932;2023-08-17T12:26:36;2.90;;;1.40;;
65658;SDS011;60181;53.258;6.932;2023-08-17T12:30:46;2.90;;;1.40;;
65658;SDS011;60181;53.258;6.932;2023-08-17T12:34:56;2.70;;;1.60;;
65658;SDS011;60181;53.258;6.932;2023-08-17T12:39:06;2.70;;;1.60;;
65658;SDS011;60181;53.258;6.932;2023-08-17T12:43:16;2.20;;;1.50;;
65658;SDS011;60181;53.258;6.932;2023-08-17T12:47:26;2.20;;;1.50;;
65658;SDS011;60181;53.258;6.932;2023-08-17T12:51:36;2.20;;;1.50;;
65658;SDS011;60181;53.258;6.932;2023-08-17T12:55:46;4.80;;;1.70;;
65658;SDS011;60181;53.258;6.932;2023-08-17T12:59:56;4.80;;;1.70;;
65658;SDS011;60181;53.258;6.932;2023-08-17T13:04:06;4.10;;;1.70;;
65658;SDS011;60181;53.258;6.932;2023-08-17T13:08:16;4.10;;;1.70;;
65658;SDS011;60181;53.258;6.932;2023-08-17T13:12:26;4.10;;;1.70;;
65658;SDS011;60181;53.258;6.932;2023-08-17T13:16:36;2.60;;;1.70;;
65658;SDS011;60181;53.258;6.932;2023-08-17T13:20:46;2.60;;;1.70;;
65658;SDS011;60181;53.258;6.932;2023-08-17T13:24:56;2.80;;;1.70;;
65658;SDS011;60181;53.258;6.932;2023-08-17T13:29:06;2.80;;;1.70;;
65658;SDS011;60181;53.258;6.932;2023-08-17T13:33:16;3.90;;;1.60;;
65658;SDS011;60181;53.258;6.932;2023-08-17T13:37:26;3.90;;;1.60;;
65658;SDS011;60181;53.258;6.932;2023-08-17T13:41:36;3.90;;;1.60;;
65658;SDS011;60181;53.258;6.932;2023-08-17T13:45:46;3.80;;;1.70;;
65658;SDS011;60181;53.258;6.932;2023-08-17T13:49:56;3.80;;;1.70;;
65658;SDS011;60181;53.258;6.932;2023-08-17T13:54:06;3.90;;;1.60;;
65658;SDS011;60181;53.258;6.932;2023-08-17T13:58:16;3.90;;;1.60;;
65658;SDS011;60181;53.258;6.932;2023-08-17T14:02:26;3.90;;;1.60;;
65658;SDS011;60181;53.258;6.932;2023-08-17T14:06:36;3.30;;;1.70;;
65658;SDS011;60181;53.258;6.932;2023-08-17T14:10:46;3.30;;;1.70;;
65658;SDS011;60181;53.258;6.932;2023-08-17T14:14:56;3.10;;;1.60;;
65658;SDS011;60181;53.258;6.932;2023-08-17T14:19:06;3.10;;;1.60;;
65658;SDS011;60181;53.258;6.932;2023-08-17T14:23:16;4.80;;;1.80;;
65658;SDS011;60181;53.258;6.932;2023-08-17T14:27:26;4.80;;;1.80;;
65658;SDS011;60181;53.258;6.932;2023-08-17T14:31:36;4.80;;;1.80;;
65658;SDS011;60181;53.258;6.932;2023-08-17T14:35:46;2.40;;;1.80;;
65658;SDS011;60181;53.258;6.932;2023-08-17T14:39:56;2.40;;;1.80;;
65658;SDS011;60181;53.258;6.932;2023-08-17T14:44:06;3.30;;;2.00;;
65658;SDS011;60181;53.258;6.932;2023-08-17T14:48:16;3.30;;;2.00;;
65658;SDS011;60181;53.258;6.932;2023-08-17T14:52:26;3.30;;;2.00;;
65658;SDS011;60181;53.258;6.932;2023-08-17T14:56:36;4.20;;;2.10;;
65658;SDS011;60181;53.258;6.932;2023-08-17T15:00:46;4.20;;;2.10;;
65658;SDS011;60181;53.258;6.932;2023-08-17T15:04:56;3.70;;;1.80;;
65658;SDS011;60181;53.258;6.932;2023-08-17T15:09:06;3.70;;;1.80;;
65658;SDS011;60181;53.258;6.932;2023-08-17T15:13:16;3.80;;;1.80;;
65658;SDS011;60181;53.258;6.932;2023-08-17T15:17:26;3.80;;;1.80;;
65658;SDS011;60181;53.258;6.932;2023-08-17T15:21:36;3.80;;;1.80;;
65658;SDS011;60181;53.258;6.932;2023-08-17T15:25:46;3.10;;;2.00;;
65658;SDS011;60181;53.258;6.932;2023-08-17T15:29:56;3.10;;;2.00;;
65658;SDS011;60181;53.258;6.932;2023-08-17T15:34:06;3.20;;;2.00;;
65658;SDS011;60181;53.258;6.932;2023-08-17T15:38:16;3.20;;;2.00;;
65658;SDS011;60181;53.258;6.932;2023-08-17T15:42:26;3.20;;;2.00;;
65658;SDS011;60181;53.258;6.932;2023-08-17T15:46:36;4.10;;;2.30;;
65658;SDS011;60181;53.258;6.932;2023-08-17T15:50:46;4.10;;;2.30;;
65658;SDS011;60181;53.258;6.932;2023-08-17T15:54:56;4.60;;;2.00;;
65658;SDS011;60181;53.258;6.932;2023-08-17T15:59:06;4.60;;;2.00;;
65658;SDS011;60181;53.258;6.932;2023-08-17T16:03:16;2.80;;;1.90;;
65658;SDS011;60181;53.258;6.932;2023-08-17T16:07:26;2.80;;;1.90;;
65658;SDS011;60181;53.258;6.932;2023-08-17T16:11:36;2.80;;;1.90;;
65658;SDS011;60181;53.258;6.932;2023-08-17T16:15:46;2.90;;;2.00;;
65658;SDS011;60181;53.258;6.932;2023-08-17T16:19:56;2.90;;;2.00;;
65658;SDS011;60181;53.258;6.932;2023-08-17T16:24:06;3.90;;;2.20;;
65658;SDS011;60181;53.258;6.932;2023-08-17T16:28:16;3.90;;;2.20;;
65658;SDS011;60181;53.258;6.932;2023-08-17T16:32:26;3.90;;;2.20;;
65658;SDS011;60181;53.258;6.932;2023-08-17T16:36:36;4.10;;;2.10;;
65658;SDS011;60181;53.258;6.932;2023-08-17T16:40:46;4.10;;;2.10;;
65658;SDS011;60181;53.258;6.932;2023-08-17T16:44:56;3.80;;;2.20;;
65658;SDS011;60181;53.258;6.932;2023-08-17T16:49:06;3.80;;;2.20;;
65658;SDS011;60181;53.258;6.932;2023-08-17T16:53:16;3.50;;;2.20;;
65658;SDS011;60181;53.258;6.932;2023-08-17T16:57:25;3.50;;;2.20;;
65658;SDS011;60181;53.258;6.932;2023-08-17T17:01:36;3.50;;;2.20;;
65658;SDS011;60181;53.258;6.932;2023-08-17T17:05:45;3.80;;;2.20;;
65658;SDS011;60181;53.258;6.932;2023-08-17T17:09:55;3.80;;;2.20;;
65658;SDS011;60181;53.258;6.932;2023-08-17T17:14:05;5.00;;;2.30;;
65658;SDS011;60181;53.258;6.932;2023-08-17T17:18:15;5.00;;;2.30;;
65658;SDS011;60181;53.258;6.932;2023-08-17T17:22:25;5.00;;;2.30;;
65658;SDS011;60181;53.258;6.932;2023-08-17T17:26:35;3.60;;;2.20;;
65658;SDS011;60181;53.258;6.932;2023-08-17T17:30:45;3.60;;;2.20;;
65658;SDS011;60181;53.258;6.932;2023-08-17T17:34:55;4.60;;;2.50;;
65658;SDS011;60181;53.258;6.932;2023-08-17T17:39:05;4.60;;;2.50;;
65658;SDS011;60181;53.258;6.932;2023-08-17T17:43:15;3.20;;;2.20;;
65658;SDS011;60181;53.258;6.932;2023-08-17T17:47:25;3.20;;;2.20;;
65658;SDS011;60181;53.258;6.932;2023-08-17T17:51:35;3.20;;;2.20;;
65658;SDS011;60181;53.258;6.932;2023-08-17T17:55:45;3.90;;;2.50;;
65658;SDS011;60181;53.258;6.932;2023-08-17T17:59:55;3.90;;;2.50;;
65658;SDS011;60181;53.258;6.932;2023-08-17T18:04:05;4.30;;;2.30;;
65658;SDS011;60181;53.258;6.932;2023-08-17T18:08:15;4.30;;;2.30;;
65658;SDS011;60181;53.258;6.932;2023-08-17T18:12:25;4.30;;;2.30;;
65658;SDS011;60181;53.258;6.932;2023-08-17T18:16:35;3.10;;;2.20;;
65658;SDS011;60181;53.258;6.932;2023-08-17T18:20:45;3.10;;;2.20;;
65658;SDS011;60181;53.258;6.932;2023-08-17T18:24:55;4.30;;;2.40;;
65658;SDS011;60181;53.258;6.932;2023-08-17T18:29:05;4.30;;;2.40;;
65658;SDS011;60181;53.258;6.932;2023-08-17T18:33:15;4.30;;;2.50;;
65658;SDS011;60181;53.258;6.932;2023-08-17T18:37:25;4.30;;;2.50;;
65658;SDS011;60181;53.258;6.932;2023-08-17T18:41:35;4.30;;;2.50;;
65658;SDS011;60181;53.258;6.932;2023-08-17T18:45:45;3.30;;;2.40;;
65658;SDS011;60181;53.258;6.932;2023-08-17T18:49:55;3.30;;;2.40;;
65658;SDS011;60181;53.258;6.932;2023-08-17T18:54:06;3.60;;;2.40;;
65658;SDS011;60181;53.258;6.932;2023-08-17T18:58:17;3.60;;;2.40;;
65658;SDS011;60181;53.258;6.932;2023-08-17T19:02:25;3.60;;;2.40;;
65658;SDS011;60181;53.258;6.932;2023-08-17T19:06:35;3.40;;;2.50;;
65658;SDS011;60181;53.258;6.932;2023-08-17T19:10:45;3.40;;;2.50;;
65658;SDS011;60181;53.258;6.932;2023-08-17T19:14:55;4.20;;;2.50;;
65658;SDS011;60181;53.258;6.932;2023-08-17T19:19:05;4.20;;;2.50;;
65658;SDS011;60181;53.258;6.932;2023-08-17T19:23:15;3.30;;;2.40;;
65658;SDS011;60181;53.258;6.932;2023-08-17T19:27:25;3.30;;;2.40;;
65658;SDS011;60181;53.258;6.932;2023-08-17T19:31:35;3.30;;;2.40;;
65658;SDS011;60181;53.258;6.932;2023-08-17T19:35:45;3.40;;;2.40;;
65658;SDS011;60181;53.258;6.932;2023-08-17T19:39:55;3.40;;;2.40;;
65658;SDS011;60181;53.258;6.932;2023-08-17T19:44:05;2.70;;;2.30;;
65658;SDS011;60181;53.258;6.932;2023-08-17T19:48:15;2.70;;;2.30;;
65658;SDS011;60181;53.258;6.932;2023-08-17T19:52:25;2.70;;;2.30;;
65658;SDS011;60181;53.258;6.932;2023-08-17T19:56:35;3.20;;;2.20;;
65658;SDS011;60181;53.258;6.932;2023-08-17T20:00:45;3.20;;;2.20;;
65658;SDS011;60181;53.258;6.932;2023-08-17T20:04:55;3.20;;;2.30;;
65658;SDS011;60181;53.258;6.932;2023-08-17T20:09:06;3.20;;;2.30;;
65658;SDS011;60181;53.258;6.932;2023-08-17T20:13:15;3.60;;;2.30;;
65658;SDS011;60181;53.258;6.932;2023-08-17T20:17:25;3.60;;;2.30;;
65658;SDS011;60181;53.258;6.932;2023-08-17T20:21:35;3.60;;;2.30;;
65658;SDS011;60181;53.258;6.932;2023-08-17T20:25:48;3.00;;;2.30;;
65658;SDS011;60181;53.258;6.932;2023-08-17T20:29:55;3.00;;;2.30;;
65658;SDS011;60181;53.258;6.932;2023-08-17T20:34:05;3.20;;;2.30;;
65658;SDS011;60181;53.258;6.932;2023-08-17T20:38:15;3.20;;;2.30;;
65658;SDS011;60181;53.258;6.932;2023-08-17T20:42:25;3.20;;;2.30;;
65658;SDS011;60181;53.258;6.932;2023-08-17T20:46:35;3.60;;;2.30;;
65658;SDS011;60181;53.258;6.932;2023-08-17T20:50:45;3.60;;;2.30;;
65658;SDS011;60181;53.258;6.932;2023-08-17T20:54:55;3.00;;;2.20;;
65658;SDS011;60181;53.258;6.932;2023-08-17T20:59:05;3.00;;;2.20;;
65658;SDS011;60181;53.258;6.932;2023-08-17T21:03:15;3.40;;;2.10;;
65658;SDS011;60181;53.258;6.932;2023-08-17T21:07:25;3.40;;;2.10;;
65658;SDS011;60181;53.258;6.932;2023-08-17T21:11:38;3.40;;;2.10;;
65658;SDS011;60181;53.258;6.932;2023-08-17T21:15:45;3.50;;;2.20;;
65658;SDS011;60181;53.258;6.932;2023-08-17T21:19:55;3.50;;;2.20;;
65658;SDS011;60181;53.258;6.932;2023-08-17T21:24:05;3.20;;;2.20;;
65658;SDS011;60181;53.258;6.932;2023-08-17T21:28:15;3.20;;;2.20;;
65658;SDS011;60181;53.258;6.932;2023-08-17T21:32:25;3.20;;;2.20;;
65658;SDS011;60181;53.258;6.932;2023-08-17T21:36:35;3.60;;;2.10;;
65658;SDS011;60181;53.258;6.932;2023-08-17T21:40:45;3.60;;;2.10;;
65658;SDS011;60181;53.258;6.932;2023-08-17T21:44:55;3.70;;;2.40;;
65658;SDS011;60181;53.258;6.932;2023-08-17T21:49:05;3.70;;;2.40;;
65658;SDS011;60181;53.258;6.932;2023-08-17T21:53:16;3.20;;;2.00;;
65658;SDS011;60181;53.258;6.932;2023-08-17T21:57:25;3.20;;;2.00;;
65658;SDS011;60181;53.258;6.932;2023-08-17T22:01:35;3.20;;;2.00;;
65658;SDS011;60181;53.258;6.932;2023-08-17T22:05:45;3.00;;;2.00;;
65658;SDS011;60181;53.258;6.932;2023-08-17T22:09:55;3.00;;;2.00;;
65658;SDS011;60181;53.258;6.932;2023-08-17T22:14:05;2.90;;;2.00;;
65658;SDS011;60181;53.258;6.932;2023-08-17T22:18:15;2.90;;;2.00;;
65658;SDS011;60181;53.258;6.932;2023-08-17T22:22:25;2.90;;;2.00;;
65658;SDS011;60181;53.258;6.932;2023-08-17T22:26:35;3.30;;;2.20;;
65658;SDS011;60181;53.258;6.932;2023-08-17T22:30:45;3.30;;;2.20;;
65658;SDS011;60181;53.258;6.932;2023-08-17T22:34:55;3.20;;;2.10;;
65658;SDS011;60181;53.258;6.932;2023-08-17T22:39:05;3.20;;;2.10;;
65658;SDS011;60181;53.258;6.932;2023-08-17T22:43:15;3.60;;;2.00;;
65658;SDS011;60181;53.258;6.932;2023-08-17T22:47:25;3.60;;;2.00;;
65658;SDS011;60181;53.258;6.932;2023-08-17T22:51:35;3.60;;;2.00;;
65658;SDS011;60181;53.258;6.932;2023-08-17T22:55:45;4.60;;;2.10;;
65658;SDS011;60181;53.258;6.932;2023-08-17T22:59:55;4.60;;;2.10;;
65658;SDS011;60181;53.258;6.932;2023-08-17T23:04:05;3.00;;;2.30;;
65658;SDS011;60181;53.258;6.932;2023-08-17T23:08:15;3.00;;;2.30;;
65658;SDS011;60181;53.258;6.932;2023-08-17T23:12:25;3.00;;;2.30;;
65658;SDS011;60181;53.258;6.932;2023-08-17T23:16:35;2.80;;;1.90;;
65658;SDS011;60181;53.258;6.932;2023-08-17T23:20:45;2.80;;;1.90;;
65658;SDS011;60181;53.258;6.932;2023-08-17T23:24:55;2.80;;;1.90;;
65658;SDS011;60181;53.258;6.932;2023-08-17T23:29:05;2.80;;;1.90;;
65658;SDS011;60181;53.258;6.932;2023-08-17T23:33:15;3.20;;;2.20;;
65658;SDS011;60181;53.258;6.932;2023-08-17T23:37:25;3.20;;;2.20;;
65658;SDS011;60181;53.258;6.932;2023-08-17T23:41:35;3.20;;;2.20;;
65658;SDS011;60181;53.258;6.932;2023-08-17T23:45:45;2.90;;;1.90;;
65658;SDS011;60181;53.258;6.932;2023-08-17T23:49:55;2.90;;;1.90;;
65658;SDS011;60181;53.258;6.932;2023-08-17T23:54:05;3.00;;;2.10;;
65658;SDS011;60181;53.258;6.932;2023-08-17T23:58:15;3.00;;;2.10;;
